Аэропорт: Кольцово. Екатеринбург

ICAO: USSS

METAR:
2019-12-12 11:00:00
USSS 121100Z 31004MPS 9999 FEW020 M05/M09 Q1017 R26R/520350 NOSIG RMK QFE742/0989
METAR:
2019-12-12 07:54:00
TAF USSS 120754Z 1209/1309 34005G15MPS 6000 -SHSN BLSN SCT016CB FM121300 30003G10MPS 9999 BLSN SCT016 BECMG 1221/1223 27003G10MPS FM130300 25003G12MPS 9999 BKN016 TEMPO 1303/1309 -SN